Time;durP1;ratioP1;P1;durP2;ratioP2;P2;SDS_P1;SDS_P2;PMS_P1;PMS_P2;Temp;Humidity;BMP_temperature;BMP_pressure;BME280_temperature;BME280_humidity;BME280_pressure;Samples;Min_cycle;Max_cycle;Signal;HPM_P1;HPM_P2
2021/12/14 00:01:21;;;;;;;428.60;174.90;;;;;;;-0.02;83.89;99712.61;105876;1318;22614;-76
2021/12/14 00:03:54;;;;;;;419.70;165.90;;;;;;;-0.05;83.94;99710.05;106040;1319;22596;-76
2021/12/14 00:06:23;;;;;;;424.50;172.10;;;;;;;-0.04;83.71;99706.45;106013;1319;23228;-76
2021/12/14 00:08:56;;;;;;;437.30;176.20;;;;;;;-0.03;83.85;99704.91;106034;1319;22586;-76
2021/12/14 00:16:58;;;;;;;433.30;167.10;;;;;;;-0.01;84.31;99713.63;106098;1316;22585;-76
2021/12/14 00:19:27;;;;;;;431.60;178.50;;;;;;;-0.02;84.10;99716.55;106133;1316;26113;-76
2021/12/14 00:22:03;;;;;;;452.10;166.50;;;;;;;-0.03;83.98;99721.19;106103;1314;22586;-73
2021/12/14 00:24:30;;;;;;;474.90;185.50;;;;;;;-0.01;83.77;99723.92;106111;1316;22649;-76
2021/12/14 00:27:03;;;;;;;468.00;188.80;;;;;;;-0.00;84.00;99724.93;106094;1315;25242;-76
2021/12/14 00:29:46;;;;;;;453.50;191.50;;;;;;;-0.01;84.12;99731.63;106108;1316;25235;-76
2021/12/14 00:32:19;;;;;;;466.50;197.60;;;;;;;-0.03;84.31;99732.83;106134;1316;22587;-76
2021/12/14 00:34:47;;;;;;;;;;;;;;;-0.04;84.29;99735.23;106120;1316;22605;-76
2021/12/14 00:37:23;;;;;;;459.10;181.10;;;;;;;-0.07;84.44;99736.26;106133;1316;22655;-76
2021/12/14 00:39:53;;;;;;;490.00;187.70;;;;;;;-0.09;84.16;99736.78;106122;1314;24219;-75
2021/12/14 00:42:21;;;;;;;487.40;192.70;;;;;;;-0.05;84.14;99734.20;106112;1317;22662;-76
2021/12/14 00:44:49;;;;;;;488.20;206.00;;;;;;;-0.04;84.10;99733.16;106147;1316;22566;-76
2021/12/14 00:47:16;;;;;;;451.90;187.10;;;;;;;-0.03;84.30;99733.68;106126;1316;24522;-76
2021/12/14 00:49:43;;;;;;;473.00;199.10;;;;;;;-0.03;84.59;99732.48;106150;1316;22659;-76
2021/12/14 00:52:11;;;;;;;461.10;192.30;;;;;;;0.01;84.62;99734.34;106135;1316;24211;-76
2021/12/14 00:54:38;;;;;;;462.70;189.10;;;;;;;0.03;84.56;99730.55;106115;1316;25402;-76
2021/12/14 00:57:07;;;;;;;479.80;185.30;;;;;;;0.03;84.49;99730.73;106142;1316;22629;-76
2021/12/14 00:59:34;;;;;;;467.40;191.40;;;;;;;0.07;84.20;99726.61;106152;1316;24290;-76
2021/12/14 01:02:07;;;;;;;459.60;190.40;;;;;;;0.08;84.17;99722.48;106062;1316;22587;-76
2021/12/14 01:04:48;;;;;;;470.50;199.30;;;;;;;0.07;84.44;99725.07;105976;1320;22579;-76
2021/12/14 01:07:17;;;;;;;475.60;196.40;;;;;;;0.03;84.51;99727.30;105847;1318;22593;-76
2021/12/14 01:09:51;;;;;;;450.20;187.10;;;;;;;0.01;84.59;99727.31;105994;1319;22586;-76
2021/12/14 01:12:34;;;;;;;445.00;180.90;;;;;;;-0.02;84.47;99726.31;106093;1316;22585;-76
2021/12/14 01:15:27;;;;;;;441.20;162.80;;;;;;;-0.03;84.25;99722.21;106096;1316;22581;-75
2021/12/14 01:18:13;;;;;;;437.50;160.90;;;;;;;-0.02;84.20;99721.00;106123;1316;22661;-74
2021/12/14 01:20:45;;;;;;;412.90;156.60;;;;;;;-0.00;84.29;99722.03;106148;1316;22578;-74
2021/12/14 01:23:19;;;;;;;385.00;147.70;;;;;;;-0.01;84.60;99722.36;106073;1315;22571;-74
2021/12/14 01:25:50;;;;;;;397.70;156.50;;;;;;;-0.03;84.68;99718.61;106060;1316;23036;-74
2021/12/14 01:28:25;;;;;;;406.50;157.40;;;;;;;-0.05;84.69;99717.58;106116;1316;22590;-74
2021/12/14 01:31:23;;;;;;;400.30;158.70;;;;;;;-0.06;84.71;99714.52;106084;1316;22641;-74
2021/12/14 01:33:55;;;;;;;412.50;150.90;;;;;;;-0.06;84.66;99713.48;105922;1318;22644;-74
2021/12/14 01:36:36;;;;;;;386.90;145.50;;;;;;;-0.04;84.39;99709.71;105851;1317;22577;-75
2021/12/14 01:42:07;;;;;;;;;;;;;;;-0.04;84.68;99707.83;105755;1319;22555;-75
2021/12/14 01:44:38;;;;;;;412.60;152.40;;;;;;;-0.08;84.85;99706.81;105742;1320;22656;-75
2021/12/14 01:47:10;;;;;;;411.70;157.90;;;;;;;-0.14;84.83;99704.11;105733;1318;22615;-75
2021/12/14 01:49:39;;;;;;;420.40;147.60;;;;;;;-0.16;84.77;99704.79;105744;1319;25300;-74
2021/12/14 01:52:12;;;;;;;430.20;162.10;;;;;;;-0.12;84.65;99706.50;106043;1314;22634;-75
2021/12/14 01:54:41;;;;;;;;;;;;;;;-0.10;84.66;99709.59;105745;1318;22609;-75
2021/12/14 01:57:11;;;;;;;429.80;165.50;;;;;;;-0.10;84.78;99708.73;105753;1319;26822;-75
2021/12/14 01:59:45;;;;;;;439.40;171.70;;;;;;;-0.12;84.82;99708.90;106203;1317;22706;-75
2021/12/14 02:02:30;;;;;;;449.20;179.10;;;;;;;-0.13;84.99;99706.84;105744;1318;22595;-75
2021/12/14 02:05:00;;;;;;;445.30;176.60;;;;;;;-0.13;85.08;99702.91;105630;1319;22743;-75
2021/12/14 02:07:28;;;;;;;470.20;174.30;;;;;;;-0.11;84.97;99702.73;105768;1318;22748;-75
2021/12/14 02:10:02;;;;;;;454.90;175.30;;;;;;;-0.08;84.76;99710.23;105824;1316;25351;-75
2021/12/14 02:12:30;;;;;;;471.40;180.60;;;;;;;-0.04;84.67;99712.27;105845;1316;22632;-75
2021/12/14 02:15:07;;;;;;;442.70;174.90;;;;;;;-0.01;84.84;99715.70;105864;1316;22629;-75
2021/12/14 02:17:38;;;;;;;464.20;180.20;;;;;;;0.02;85.09;99714.48;105853;1316;23119;-75
2021/12/14 02:20:07;;;;;;;460.30;179.70;;;;;;;0.03;84.97;99711.89;105825;1310;22632;-75
2021/12/14 02:22:34;;;;;;;459.90;181.00;;;;;;;0.01;84.88;99710.70;105809;1316;22586;-75
2021/12/14 02:25:05;;;;;;;476.00;173.70;;;;;;;0.00;84.89;99709.52;105803;1316;22694;-75
2021/12/14 02:27:35;;;;;;;464.00;174.80;;;;;;;0.05;84.79;99709.84;105828;1316;22645;-75
2021/12/14 02:30:16;;;;;;;457.40;177.20;;;;;;;0.08;84.58;99709.30;105702;1317;25399;-75
2021/12/14 02:32:44;;;;;;;450.00;176.00;;;;;;;0.09;84.85;99713.58;105862;1316;22617;-75
2021/12/14 02:35:15;;;;;;;453.40;176.80;;;;;;;0.07;84.96;99712.56;105914;1317;22575;-75
2021/12/14 02:37:47;;;;;;;467.50;183.10;;;;;;;0.07;84.85;99714.45;105857;1315;25253;-77
2021/12/14 02:40:53;;;;;;;459.60;179.80;;;;;;;0.08;85.03;99711.18;105938;1316;22552;-75
2021/12/14 02:43:42;;;;;;;463.30;165.20;;;;;;;0.10;84.80;99706.53;105850;1314;22569;-76
2021/12/14 02:46:18;;;;;;;472.20;172.60;;;;;;;0.13;84.63;99705.50;105861;1316;26738;-77
2021/12/14 02:48:49;;;;;;;449.30;170.10;;;;;;;0.14;84.59;99708.23;105866;1316;22711;-77
2021/12/14 02:51:22;;;;;;;444.70;175.90;;;;;;;0.11;84.80;99709.61;105898;1316;22579;-76
2021/12/14 02:53:52;;;;;;;444.80;179.50;;;;;;;0.09;84.88;99707.73;105840;1317;22596;-77
2021/12/14 02:56:22;;;;;;;456.90;179.00;;;;;;;0.10;84.84;99712.70;105864;1316;22574;-76
2021/12/14 02:58:56;;;;;;;461.90;169.20;;;;;;;0.09;84.65;99716.14;105809;1315;24373;-76
2021/12/14 03:01:24;;;;;;;472.80;177.20;;;;;;;0.13;84.60;99712.69;105878;1314;22582;-75
2021/12/14 03:03:51;;;;;;;468.90;178.00;;;;;;;0.16;84.52;99713.55;105809;1316;22713;-76
2021/12/14 03:06:23;;;;;;;444.70;175.20;;;;;;;0.15;84.68;99720.56;105765;1319;25367;-75
2021/12/14 03:09:07;;;;;;;462.70;182.50;;;;;;;0.16;84.82;99725.02;105759;1316;22579;-76
2021/12/14 03:11:38;;;;;;;476.60;185.30;;;;;;;0.15;84.76;99727.77;105831;1316;22671;-75
2021/12/14 03:14:05;;;;;;;482.70;185.70;;;;;;;0.17;84.82;99732.73;105849;1315;25351;-75
2021/12/14 03:16:35;;;;;;;494.10;175.60;;;;;;;0.16;84.59;99736.15;105881;1316;22604;-75
2021/12/14 03:19:06;;;;;;;495.10;188.40;;;;;;;0.18;84.40;99735.09;105873;1316;22579;-75
2021/12/14 03:21:36;;;;;;;479.40;185.90;;;;;;;0.19;84.41;99735.60;105833;1314;26655;-75
2021/12/14 03:24:06;;;;;;;429.30;165.40;;;;;;;0.18;84.49;99735.45;105861;1314;22593;-76
2021/12/14 03:26:36;;;;;;;445.80;172.80;;;;;;;0.15;84.85;99734.79;105842;1316;22582;-76
2021/12/14 03:29:13;;;;;;;428.80;167.30;;;;;;;0.12;84.87;99728.63;105834;1316;22600;-76
2021/12/14 03:31:46;;;;;;;416.60;159.00;;;;;;;0.10;84.88;99724.69;105878;1316;22705;-75
2021/12/14 03:34:24;;;;;;;434.10;152.30;;;;;;;0.09;84.71;99727.80;105864;1316;22598;-75
2021/12/14 03:36:59;;;;;;;428.00;154.70;;;;;;;0.12;84.60;99727.59;105828;1317;23290;-75
2021/12/14 03:39:37;;;;;;;395.80;150.60;;;;;;;0.15;84.56;99726.56;105896;1316;22659;-75
2021/12/14 03:42:15;;;;;;;408.70;158.20;;;;;;;0.16;84.66;99730.50;105883;1313;22718;-75
2021/12/14 03:44:47;;;;;;;411.90;157.10;;;;;;;0.17;84.91;99730.15;105841;1310;22619;-76
2021/12/14 03:47:20;;;;;;;393.30;150.40;;;;;;;0.19;84.80;99733.21;105859;1316;22570;-75
2021/12/14 03:49:54;;;;;;;410.50;156.60;;;;;;;0.18;84.80;99734.24;105859;1314;24741;-76
2021/12/14 03:52:34;;;;;;;429.00;154.70;;;;;;;0.14;84.72;99732.05;105877;1316;22637;-75
2021/12/14 03:55:09;;;;;;;418.50;154.40;;;;;;;0.19;84.58;99726.52;105857;1316;26770;-75
2021/12/14 03:57:36;;;;;;;412.10;150.50;;;;;;;0.21;84.51;99720.69;105912;1316;22591;-75
2021/12/14 04:00:08;;;;;;;398.60;151.80;;;;;;;0.19;84.69;99721.89;105848;1316;24380;-75
2021/12/14 04:02:35;;;;;;;401.50;154.20;;;;;;;0.18;84.71;99723.96;105906;1316;22592;-75
2021/12/14 04:05:11;;;;;;;378.70;145.60;;;;;;;0.17;84.81;99719.54;105788;1316;23052;-75
2021/12/14 04:07:43;;;;;;;367.10;135.20;;;;;;;0.16;84.68;99720.56;105777;1318;25399;-74
2021/12/14 04:10:31;;;;;;;379.00;129.40;;;;;;;0.15;84.63;99721.59;105924;1316;22570;-74
2021/12/14 04:13:00;;;;;;;392.20;137.90;;;;;;;0.16;84.47;99716.63;105861;1316;22588;-74
2021/12/14 04:15:27;;;;;;;368.00;132.20;;;;;;;0.18;84.49;99712.14;105898;1315;25280;-74
2021/12/14 04:17:56;;;;;;;343.40;126.00;;;;;;;0.19;84.85;99706.83;105853;1314;27616;-74
2021/12/14 04:20:31;;;;;;;370.00;130.40;;;;;;;0.16;84.96;99711.82;105853;1316;22691;-74
2021/12/14 04:22:59;;;;;;;352.90;129.70;;;;;;;0.13;84.89;99704.30;105814;1316;24243;-74
2021/12/14 04:25:30;;;;;;;330.50;121.60;;;;;;;0.12;84.90;99703.61;105795;1316;22601;-75
2021/12/14 04:27:59;;;;;;;329.60;112.80;;;;;;;0.14;84.88;99707.04;105844;1316;22635;-74
2021/12/14 04:30:27;;;;;;;326.00;114.30;;;;;;;0.17;84.64;99701.88;105852;1316;22569;-74
2021/12/14 04:32:59;;;;;;;308.80;113.80;;;;;;;0.20;84.68;99703.91;106082;1316;22562;-74
2021/12/14 04:35:26;;;;;;;324.30;123.00;;;;;;;0.20;84.88;99701.34;105844;1316;24212;-75
2021/12/14 04:37:58;;;;;;;388.40;145.70;;;;;;;0.18;85.06;99708.04;105823;1316;22635;-74
2021/12/14 04:51:58;;;;;;;271.70;103.10;;;;;;;0.21;84.77;99710.58;105855;1316;22562;-75
2021/12/14 04:54:38;;;;;;;311.40;110.50;;;;;;;0.18;85.04;99710.95;105912;1316;25469;-75
2021/12/14 04:57:17;;;;;;;276.90;103.00;;;;;;;0.11;84.92;99712.70;105837;1314;22606;-75
2021/12/14 04:59:44;;;;;;;284.80;102.30;;;;;;;0.05;84.93;99709.83;105857;1316;22567;-75
2021/12/14 05:02:17;;;;;;;329.90;111.70;;;;;;;0.03;84.93;99707.27;105839;1315;23065;-75
2021/12/14 05:04:44;;;;;;;339.00;117.00;;;;;;;0.07;84.67;99714.27;105788;1311;25466;-75
2021/12/14 05:09:20;;;;;;;316.40;116.80;;;;;;;0.09;84.69;99724.71;105762;1318;22641;-75
2021/12/14 05:10:08;;;;;;;322.70;115.30;;;;;;;0.10;84.90;99722.80;105634;1320;25311;-75
2021/12/14 05:12:38;;;;;;;326.40;117.80;;;;;;;0.12;85.14;99717.66;105858;1315;24490;-75
2021/12/14 05:15:09;;;;;;;346.70;123.40;;;;;;;0.11;84.98;99713.72;105842;1316;22576;-75
2021/12/14 05:17:38;;;;;;;334.60;126.40;;;;;;;0.07;84.94;99709.14;105910;1316;23893;-75
2021/12/14 05:20:08;;;;;;;388.70;128.70;;;;;;;0.06;85.01;99709.14;105864;1316;25234;-75
2021/12/14 05:22:41;;;;;;;385.50;131.20;;;;;;;0.09;84.85;99703.13;105891;1316;22603;-75
2021/12/14 05:25:24;;;;;;;354.20;122.90;;;;;;;0.12;84.86;99700.52;105865;1314;22576;-75
2021/12/14 05:27:58;;;;;;;339.10;120.90;;;;;;;0.15;84.87;99694.52;105891;1314;22709;-75
2021/12/14 05:30:40;;;;;;;328.60;116.30;;;;;;;0.14;85.28;99695.73;105921;1314;22577;-75
2021/12/14 05:33:14;;;;;;;335.80;122.50;;;;;;;0.13;85.17;99694.02;105878;1316;22581;-75
2021/12/14 05:35:42;;;;;;;340.60;119.50;;;;;;;0.08;84.93;99694.23;105801;1315;24369;-75
2021/12/14 05:38:18;;;;;;;330.80;113.00;;;;;;;0.03;84.86;99702.64;106124;1316;22578;-75
2021/12/14 05:40:58;;;;;;;326.30;113.40;;;;;;;0.03;84.76;99706.41;106112;1316;22609;-75
2021/12/14 05:43:29;;;;;;;316.10;113.10;;;;;;;0.04;84.86;99704.35;106199;1316;22609;-75
2021/12/14 05:46:00;;;;;;;328.20;117.90;;;;;;;0.07;85.02;99699.89;106208;1314;22556;-75
2021/12/14 05:48:36;;;;;;;348.60;121.90;;;;;;;0.07;85.17;99694.41;106126;1314;22566;-75
2021/12/14 05:51:08;;;;;;;327.60;117.10;;;;;;;0.07;85.16;99693.73;106102;1316;25508;-75
2021/12/14 05:53:38;;;;;;;329.00;117.80;;;;;;;0.04;85.13;99695.61;106220;1316;22586;-76
2021/12/14 05:56:09;;;;;;;330.60;112.80;;;;;;;0.06;85.05;99689.45;106125;1316;24386;-76
2021/12/14 05:58:37;;;;;;;344.60;117.30;;;;;;;0.08;84.65;99689.27;105944;1316;24361;-76
2021/12/14 06:01:09;;;;;;;317.40;109.50;;;;;;;0.08;84.82;99688.06;106108;1317;22773;-76
2021/12/14 06:03:41;;;;;;;316.60;110.90;;;;;;;0.05;85.14;99689.96;106143;1316;22794;-76
2021/12/14 06:06:37;;;;;;;305.10;110.70;;;;;;;-0.02;85.16;99694.80;106131;1316;24477;-75
2021/12/14 06:09:15;;;;;;;304.00;107.10;;;;;;;-0.07;85.18;99698.23;106065;1314;22562;-75
2021/12/14 06:11:45;;;;;;;326.50;107.80;;;;;;;-0.07;85.27;99700.81;106039;1319;23883;-75
2021/12/14 06:14:17;;;;;;;326.50;110.80;;;;;;;-0.01;85.04;99698.91;106036;1318;25373;-75
2021/12/14 06:16:46;;;;;;;326.70;109.60;;;;;;;0.05;84.94;99700.41;106008;1314;22665;-75
2021/12/14 06:19:37;;;;;;;319.80;108.80;;;;;;;0.05;85.03;99701.79;106021;1318;22578;-75
2021/12/14 06:22:08;;;;;;;309.30;108.90;;;;;;;0.04;85.25;99694.41;106028;1319;22597;-75
2021/12/14 06:24:38;;;;;;;329.50;115.80;;;;;;;0.05;85.25;99689.80;106069;1316;22649;-75
2021/12/14 06:27:11;;;;;;;331.80;115.60;;;;;;;0.05;85.14;99689.27;106118;1317;24498;-75
2021/12/14 06:29:45;;;;;;;343.20;109.30;;;;;;;0.07;85.18;99689.11;106127;1316;22558;-75
2021/12/14 06:32:18;;;;;;;340.10;110.70;;;;;;;0.12;84.89;99688.20;106120;1316;22560;-76
2021/12/14 06:34:54;;;;;;;320.50;106.80;;;;;;;0.15;84.71;99686.99;106127;1316;22587;-76
2021/12/14 06:37:30;;;;;;;298.30;105.20;;;;;;;0.13;84.97;99685.80;106126;1313;22582;-75
2021/12/14 06:40:12;;;;;;;299.30;106.90;;;;;;;0.11;85.10;99683.74;106138;1316;25286;-75
2021/12/14 06:42:52;;;;;;;297.30;104.10;;;;;;;0.10;85.24;99676.58;106147;1316;24436;-75
2021/12/14 06:45:47;;;;;;;332.20;115.80;;;;;;;0.08;84.97;99671.29;106115;1316;25921;-79
2021/12/14 06:48:20;;;;;;;347.30;115.60;;;;;;;0.07;84.80;99677.64;106159;1316;22639;-77
2021/12/14 06:51:00;;;;;;;317.90;112.00;;;;;;;0.10;84.80;99678.10;106177;1314;22582;-77
2021/12/14 06:53:30;;;;;;;312.80;110.30;;;;;;;0.10;84.93;99680.49;106070;1314;22587;-82
2021/12/14 06:55:59;;;;;;;291.30;108.70;;;;;;;0.10;85.18;99680.84;105888;1316;22590;-77
2021/12/14 06:58:30;;;;;;;318.90;115.50;;;;;;;0.12;85.40;99682.38;105914;1316;24240;-78
2021/12/14 07:01:12;;;;;;;321.20;117.30;;;;;;;0.16;85.30;99681.16;105885;1316;27693;-78
2021/12/14 07:03:49;;;;;;;318.60;111.60;;;;;;;0.19;85.32;99680.27;105583;1307;421923;-80
2021/12/14 07:06:35;;;;;;;301.10;103.60;;;;;;;0.21;85.07;99680.26;105867;1316;22576;-79
2021/12/14 07:09:09;;;;;;;318.90;107.50;;;;;;;0.30;84.92;99682.59;105879;1316;22579;-77
2021/12/14 07:11:40;;;;;;;278.50;103.60;;;;;;;0.35;84.96;99687.89;105879;1316;22645;-77
2021/12/14 07:14:42;;;;;;;294.00;111.00;;;;;;;0.36;85.25;99687.36;105909;1314;22730;-77
2021/12/14 07:17:20;;;;;;;316.10;113.40;;;;;;;0.33;85.30;99689.95;105806;1316;22575;-77
2021/12/14 07:20:05;;;;;;;319.80;113.00;;;;;;;0.29;85.31;99695.61;105820;1317;25380;-76
2021/12/14 07:22:42;;;;;;;310.00;103.30;;;;;;;0.27;85.26;99695.98;105918;1316;22861;-77
2021/12/14 07:25:32;;;;;;;309.80;107.30;;;;;;;0.33;85.22;99699.20;105887;1316;23101;-81
2021/12/14 07:28:08;;;;;;;278.10;103.10;;;;;;;0.38;85.03;99699.33;105961;1316;22535;-80
2021/12/14 07:30:35;;;;;;;288.90;105.40;;;;;;;0.39;85.26;99703.61;105903;1315;24383;-84
2021/12/14 07:33:18;;;;;;;289.30;104.70;;;;;;;0.41;85.42;99699.66;105901;1315;24339;-79
2021/12/14 07:35:53;;;;;;;282.90;101.80;;;;;;;0.50;85.41;99697.02;105875;1316;22628;-77
2021/12/14 07:38:29;;;;;;;278.90;103.20;;;;;;;0.55;85.34;99698.34;105870;1316;23289;-80
2021/12/14 07:41:17;;;;;;;280.40;97.00;;;;;;;0.60;85.25;99699.67;105888;1316;22608;-79
2021/12/14 07:43:50;;;;;;;276.70;97.40;;;;;;;0.69;84.97;99698.75;105881;1316;22577;-78
2021/12/14 07:46:20;;;;;;;253.50;91.80;;;;;;;0.73;84.83;99696.30;105927;1316;24246;-81
2021/12/14 07:48:51;;;;;;;259.40;94.20;;;;;;;0.70;84.94;99694.96;105930;1316;23641;-80
2021/12/14 07:51:20;;;;;;;259.50;94.30;;;;;;;0.68;85.23;99695.84;105925;1316;22679;-78
2021/12/14 07:53:54;;;;;;;250.90;94.30;;;;;;;0.69;84.90;99691.73;105942;1316;22599;-79
2021/12/14 07:56:32;;;;;;;256.70;97.00;;;;;;;0.71;85.01;99687.94;105865;1316;22609;-80
2021/12/14 07:59:00;;;;;;;258.10;86.40;;;;;;;0.73;84.86;99684.13;105910;1316;22751;-78
2021/12/14 08:01:28;;;;;;;266.70;95.50;;;;;;;0.78;84.75;99688.22;105941;1316;22590;-76
2021/12/14 08:04:04;;;;;;;281.10;100.10;;;;;;;0.82;84.75;99687.66;105979;1316;22572;-75
2021/12/14 08:06:48;;;;;;;235.00;91.50;;;;;;;0.87;84.97;99692.59;105888;1316;24272;-77
2021/12/14 08:09:32;;;;;;;258.10;96.50;;;;;;;0.91;84.83;99696.83;105864;1314;23034;-76
2021/12/14 08:12:01;;;;;;;282.40;106.70;;;;;;;0.94;85.03;99696.98;105888;1316;22568;-78
2021/12/14 08:14:31;;;;;;;266.20;99.20;;;;;;;0.93;84.89;99699.05;105908;1315;22643;-77
2021/12/14 08:17:09;;;;;;;266.20;93.10;;;;;;;0.92;84.78;99700.77;105890;1316;22582;-78
2021/12/14 08:19:42;;;;;;;258.00;93.00;;;;;;;0.95;84.70;99702.46;106041;1316;22580;-77
2021/12/14 08:22:26;;;;;;;242.30;87.50;;;;;;;0.95;84.59;99704.34;105934;1316;22595;-77
2021/12/14 08:24:53;;;;;;;;;;;;;;;0.90;84.84;99711.77;105981;1316;22557;-76
2021/12/14 08:27:26;;;;;;;241.10;87.40;;;;;;;0.84;85.15;99710.79;105943;1316;22592;-79
2021/12/14 08:29:57;;;;;;;235.30;88.40;;;;;;;0.83;84.93;99708.73;105927;1316;22645;-76
2021/12/14 08:32:34;;;;;;;243.90;86.90;;;;;;;0.82;84.92;99708.40;105908;1316;22582;-77
2021/12/14 08:35:05;;;;;;;253.60;87.90;;;;;;;0.86;84.81;99708.89;105884;1316;22693;-74
2021/12/14 08:37:53;;;;;;;238.20;88.50;;;;;;;0.94;84.68;99707.44;105705;1316;25344;-76
2021/12/14 08:40:35;;;;;;;220.30;80.80;;;;;;;1.02;84.57;99704.79;105907;1316;22706;-76
2021/12/14 08:43:13;;;;;;;217.30;81.60;;;;;;;1.07;84.87;99703.53;106067;1316;22608;-76
2021/12/14 08:45:46;;;;;;;211.10;81.40;;;;;;;1.11;85.08;99701.60;105867;1314;22692;-77
2021/12/14 08:48:26;;;;;;;236.90;86.30;;;;;;;1.15;85.01;99698.33;105849;1316;22687;-77
2021/12/14 08:50:58;;;;;;;222.30;89.00;;;;;;;1.16;84.86;99703.13;105892;1313;22666;-78
2021/12/14 08:53:32;;;;;;;258.10;96.10;;;;;;;1.15;84.68;99700.55;105902;1315;22674;-79
2021/12/14 08:56:01;;;;;;;237.60;90.20;;;;;;;1.21;84.52;99698.08;105921;1315;25660;-78
2021/12/14 08:58:29;;;;;;;235.50;82.70;;;;;;;1.27;84.61;99692.69;105943;1316;22557;-79
2021/12/14 09:01:01;;;;;;;244.60;90.50;;;;;;;1.28;84.71;99691.82;105898;1316;22575;-79
2021/12/14 09:03:35;;;;;;;261.60;100.40;;;;;;;1.27;84.89;99688.39;105920;1316;25497;-80
2021/12/14 09:06:17;;;;;;;248.40;98.10;;;;;;;1.27;84.90;99681.70;105910;1315;22622;-85
2021/12/14 09:08:47;;;;;;;252.00;93.80;;;;;;;1.28;84.70;99680.48;105665;1317;22579;-77
2021/12/14 09:11:19;;;;;;;272.60;90.90;;;;;;;1.28;84.63;99679.12;105811;1316;22700;-79
2021/12/14 09:13:47;;;;;;;283.90;97.00;;;;;;;1.33;84.44;99671.19;105877;1316;22593;-78
2021/12/14 09:16:19;;;;;;;274.40;92.10;;;;;;;1.36;84.48;99668.55;105970;1317;22634;-78
2021/12/14 09:18:51;;;;;;;215.80;78.50;;;;;;;1.37;84.79;99668.03;105932;1314;22651;-78
2021/12/14 09:21:22;;;;;;;192.20;72.00;;;;;;;1.34;84.86;99668.41;105679;1316;22567;-75
2021/12/14 09:23:53;;;;;;;210.30;83.20;;;;;;;1.31;84.81;99670.34;105885;1315;22587;-75
2021/12/14 09:26:25;;;;;;;216.20;84.90;;;;;;;1.30;84.76;99667.77;105959;1316;22624;-76
2021/12/14 09:28:52;;;;;;;219.60;76.80;;;;;;;1.33;84.66;99667.23;105923;1316;22579;-76
2021/12/14 09:31:24;;;;;;;193.70;72.70;;;;;;;1.40;84.65;99661.66;105817;1316;22585;-76
2021/12/14 09:33:54;;;;;;;188.50;73.90;;;;;;;1.44;84.64;99655.59;105885;1314;22707;-76
2021/12/14 09:36:22;;;;;;;182.30;71.60;;;;;;;1.43;84.83;99650.79;105942;1316;25920;-76
2021/12/14 09:38:54;;;;;;;190.20;75.90;;;;;;;1.41;84.87;99647.57;106110;1316;22582;-76
2021/12/14 09:41:33;;;;;;;183.70;76.50;;;;;;;1.38;84.82;99649.66;106147;1316;22571;-79
2021/12/14 09:44:04;;;;;;;201.60;77.70;;;;;;;1.37;84.82;99646.92;106154;1313;22694;-79
2021/12/14 09:46:33;;;;;;;179.70;69.70;;;;;;;1.39;84.59;99643.30;106154;1314;22574;-80
2021/12/14 09:49:03;;;;;;;183.40;70.80;;;;;;;1.44;84.29;99647.85;106125;1316;25905;-80
2021/12/14 09:51:36;;;;;;;183.90;71.30;;;;;;;1.50;84.36;99648.65;106144;1316;22686;-78
2021/12/14 09:54:07;;;;;;;180.60;73.00;;;;;;;1.57;84.56;99652.86;106157;1316;22567;-80
2021/12/14 09:56:38;;;;;;;184.90;77.30;;;;;;;1.64;84.60;99650.53;106166;1316;22591;-80
2021/12/14 09:59:08;;;;;;;182.10;74.30;;;;;;;1.69;84.60;99650.98;106142;1316;22640;-79
2021/12/14 10:01:42;;;;;;;139.50;58.30;;;;;;;1.72;84.51;99657.12;106152;1314;22625;-79
2021/12/14 10:04:17;;;;;;;155.20;59.30;;;;;;;1.75;84.38;99655.37;106168;1316;22579;-77
2021/12/14 10:06:45;;;;;;;155.50;61.60;;;;;;;1.80;84.37;99654.77;106186;1316;22967;-79
2021/12/14 10:09:19;;;;;;;178.60;62.50;;;;;;;1.86;84.01;99655.21;106112;1315;23539;-77
2021/12/14 10:14:35;;;;;;;179.20;65.40;;;;;;;1.84;84.18;99657.98;105832;1318;22582;-79
2021/12/14 10:17:06;;;;;;;175.10;64.10;;;;;;;1.80;84.19;99658.39;105779;1318;22649;-80
2021/12/14 10:19:35;;;;;;;194.50;69.50;;;;;;;1.79;84.15;99657.71;105736;1319;23032;-80
2021/12/14 10:22:10;;;;;;;218.70;81.10;;;;;;;1.77;84.03;99658.95;105810;1318;22735;-81
2021/12/14 10:24:38;;;;;;;284.50;104.70;;;;;;;1.78;83.99;99653.10;105840;1317;22631;-81
2021/12/14 10:27:11;;;;;;;299.30;109.00;;;;;;;1.87;83.92;99649.37;105850;1316;22583;-81
2021/12/14 10:29:40;;;;;;;190.30;74.90;;;;;;;1.93;83.90;99644.82;105861;1316;22604;-78
2021/12/14 10:32:14;;;;;;;223.40;92.90;;;;;;;1.93;84.14;99646.20;105918;1316;22587;-79
2021/12/14 10:34:46;;;;;;;173.10;75.20;;;;;;;1.89;84.09;99641.42;105943;1316;22564;-80
2021/12/14 10:37:24;;;;;;;226.10;104.20;;;;;;;1.86;84.13;99633.59;105873;1315;22566;-76
2021/12/14 10:42:51;;;;;;;195.80;88.10;;;;;;;1.88;83.97;99623.76;105848;1316;23393;-77
2021/12/14 10:45:21;;;;;;;193.90;85.30;;;;;;;1.99;83.94;99626.17;105882;1316;22694;-77
2021/12/14 10:47:49;;;;;;;160.10;70.50;;;;;;;2.08;83.92;99624.31;105896;1316;22671;-77
2021/12/14 10:50:21;;;;;;;180.60;79.00;;;;;;;2.14;84.13;99619.77;105900;1316;23398;-77
2021/12/14 10:52:49;;;;;;;179.20;77.50;;;;;;;2.18;84.12;99618.32;105800;1317;22556;-73
2021/12/14 10:55:25;;;;;;;191.10;78.30;;;;;;;2.20;83.88;99622.92;105856;1316;24461;-76
2021/12/14 10:57:54;;;;;;;179.90;73.30;;;;;;;2.19;83.66;99616.92;105868;1316;22610;-79
2021/12/14 11:00:33;;;;;;;227.20;85.00;;;;;;;2.17;83.59;99617.13;105860;1316;25453;-76
2021/12/14 11:03:07;;;;;;;187.40;77.00;;;;;;;2.21;83.52;99622.41;105908;1316;22582;-76
2021/12/14 11:05:36;;;;;;;202.80;77.80;;;;;;;2.20;83.73;99626.37;105830;1316;22580;-76
2021/12/14 11:08:10;;;;;;;193.90;72.20;;;;;;;2.18;84.01;99621.59;105756;1317;22580;-76
2021/12/14 11:10:39;;;;;;;179.80;69.40;;;;;;;2.14;83.97;99615.29;105748;1316;25229;-75
2021/12/14 11:13:09;;;;;;;170.30;69.90;;;;;;;2.14;83.96;99610.15;105846;1317;22572;-75
2021/12/14 11:15:49;;;;;;;169.50;67.90;;;;;;;2.14;83.60;99609.43;105827;1316;22613;-75
2021/12/14 11:18:26;;;;;;;185.80;68.10;;;;;;;2.15;83.49;99608.23;105826;1315;24059;-76
2021/12/14 11:21:08;;;;;;;170.40;67.70;;;;;;;2.19;83.54;99605.40;105817;1317;22567;-76
2021/12/14 11:23:41;;;;;;;171.10;72.30;;;;;;;2.23;83.72;99607.08;105847;1316;25336;-75
2021/12/14 11:26:15;;;;;;;166.10;71.50;;;;;;;2.25;83.98;99603.59;105803;1318;23953;-75
2021/12/14 11:28:53;;;;;;;177.20;77.50;;;;;;;2.23;84.00;99599.50;105861;1317;22581;-77
2021/12/14 11:31:43;;;;;;;190.30;80.10;;;;;;;2.24;83.94;99599.14;105782;1314;22627;-77
2021/12/14 11:34:14;;;;;;;214.30;86.50;;;;;;;2.28;83.70;99604.23;105798;1317;22639;-76
2021/12/14 11:36:57;;;;;;;212.50;80.10;;;;;;;2.32;83.50;99601.43;105995;1318;25927;-77
2021/12/14 11:39:29;;;;;;;206.90;79.40;;;;;;;2.35;83.26;99606.00;106089;1314;22585;-77
2021/12/14 11:41:58;;;;;;;201.20;73.70;;;;;;;2.39;83.53;99607.67;106132;1317;25404;-77
2021/12/14 11:44:35;;;;;;;216.10;81.20;;;;;;;2.40;83.74;99609.71;105824;1317;22643;-77
2021/12/14 11:47:33;;;;;;;235.60;84.10;;;;;;;2.39;83.52;99614.55;106094;1316;24501;-77
2021/12/14 11:50:18;;;;;;;227.20;84.60;;;;;;;2.36;83.65;99606.52;106177;1316;24403;-78
2021/12/14 11:52:50;;;;;;;209.90;80.70;;;;;;;2.35;83.34;99601.36;106179;1314;24281;-77
2021/12/14 11:55:31;;;;;;;214.40;82.60;;;;;;;2.35;83.25;99599.83;106149;1316;22580;-77
2021/12/14 11:58:06;;;;;;;187.60;73.80;;;;;;;2.37;83.07;99601.34;106133;1316;22628;-78
2021/12/14 12:00:39;;;;;;;178.80;78.00;;;;;;;2.40;83.22;99600.95;106165;1316;22878;-77